Wilson Heron — 9HJW9 — position and weather

sailwx.info

Track history (hours):
 
Tides and Currents Weather Stations Pressure Air Temp Water Temp Dewpoint Dewpoint Depression Visibility Wind Speed Wind Dir Waves Ship Positions

Wilson Heron

Last reported at 2015-Sep-03 13:14 UTC. Time now 2015-Sep-04 05:55 UTC.
Position N 66°35' E 011°25'.

Length 91 m; draft 4 m.

Type: Cargo ship. MMSI: 249075000.

Date/timePositionNaut miles runAvg speedWind from/ knotsBaromVisibWave heightAir tempDewpointWater temp
2015-Sep-03 13:14N 66°35' E 011°25'15611.4
2015-Sep-02 23:30N 64°06' E 009°32'1111.5
2015-Sep-02 22:33N 63°56' E 009°23'1211.7
2015-Sep-02 21:33N 63°44' E 009°16'  
2015-Aug-30 13:20N 59°23' W 003°19'7 8.9
2015-Aug-30 12:33N 59°19' W 003°29'10 9.7
2015-Aug-30 11:33N 59°13' W 003°44'10 9.9
2015-Aug-30 10:33N 59°07' W 003°59'1010.1
2015-Aug-30 09:34N 59°00' W 004°15'1110.6
2015-Aug-30 08:33N 58°54' W 004°31'1110.9
2015-Aug-30 07:33N 58°47' W 004°47'5410.6
2015-Aug-30 02:31N 58°04' W 005°49'136 9.0
2015-Aug-29 11:25N 55°53' W 006°54'8 9.6
2015-Aug-29 10:33N 55°47' W 006°44'9 9.2
2015-Aug-29 09:33N 55°39' W 006°34'56 8.7
2015-Aug-29 03:08N 54°57' W 005°30'711.8
2015-Aug-29 02:33N 54°51' W 005°25'1212.0
2015-Aug-29 01:33N 54°41' W 005°14'1110.8
2015-Aug-29 00:31N 54°30' W 005°09'1010.5
2015-Aug-28 23:33N 54°20' W 005°11'10 9.9
2015-Aug-28 22:33N 54°10' W 005°13'  
2015-Aug-25 09:04N 39°54' W 009°50'810.2
2015-Aug-25 08:19N 39°46' W 009°50'910.4
2015-Aug-25 07:27N 39°37' W 009°50'1010.3
2015-Aug-25 06:30N 39°28' W 009°51'9 9.8
2015-Aug-25 05:33N 39°18' W 009°51'1010.0
2015-Aug-25 04:33N 39°08' W 009°51'1010.2
2015-Aug-25 03:33N 38°58' W 009°52'1010.0
2015-Aug-25 02:33N 38°48' W 009°52'9 9.4
2015-Aug-25 01:34N 38°39' W 009°50'10 9.7
2015-Aug-25 00:33N 38°30' W 009°46'10 9.5
2015-Aug-24 23:33N 38°21' W 009°42'9 9.1
2015-Aug-24 22:33N 38°15' W 009°33'10 9.6
2015-Aug-24 21:33N 38°09' W 009°23'9 9.3
2015-Aug-24 20:33N 38°04' W 009°13'9 9.1
2015-Aug-24 19:33N 37°59' W 009°03'10 9.7
2015-Aug-24 18:33N 37°54' W 008°53'2 2.3
2015-Aug-24 17:33N 37°56' W 008°51'0 0.0
2015-Aug-24 16:33N 37°56' W 008°51'0 0.0
2015-Aug-24 15:32N 37°56' W 008°51'0 0.0
2015-Aug-24 14:32N 37°56' W 008°51'0 0.0
2015-Aug-24 13:32N 37°56' W 008°51'  
Track history (hours):
 
Tides and Currents Weather Stations Pressure Air Temp Water Temp Dewpoint Dewpoint Depression Visibility Wind Speed Wind Dir Waves Ship Positions

Wilson Heron

Last reported at 2015-Sep-03 13:14 UTC. Time now 2015-Sep-04 05:55 UTC.
Position N 66°35' E 011°25'.

Length 91 m; draft 4 m.

Type: Cargo ship. MMSI: 249075000.

Date/timePositionNaut miles runAvg speedWind from/ knotsBaromVisibWave heightAir tempDewpointWater temp
2015-Sep-03 13:14N 66°35' E 011°25'15611.4
2015-Sep-02 23:30N 64°06' E 009°32'1111.5
2015-Sep-02 22:33N 63°56' E 009°23'1211.7
2015-Sep-02 21:33N 63°44' E 009°16'  
2015-Aug-30 13:20N 59°23' W 003°19'7 8.9
2015-Aug-30 12:33N 59°19' W 003°29'10 9.7
2015-Aug-30 11:33N 59°13' W 003°44'10 9.9
2015-Aug-30 10:33N 59°07' W 003°59'1010.1
2015-Aug-30 09:34N 59°00' W 004°15'1110.6
2015-Aug-30 08:33N 58°54' W 004°31'1110.9
2015-Aug-30 07:33N 58°47' W 004°47'5410.6
2015-Aug-30 02:31N 58°04' W 005°49'136 9.0
2015-Aug-29 11:25N 55°53' W 006°54'8 9.6
2015-Aug-29 10:33N 55°47' W 006°44'9 9.2
2015-Aug-29 09:33N 55°39' W 006°34'56 8.7
2015-Aug-29 03:08N 54°57' W 005°30'711.8
2015-Aug-29 02:33N 54°51' W 005°25'1212.0
2015-Aug-29 01:33N 54°41' W 005°14'1110.8
2015-Aug-29 00:31N 54°30' W 005°09'1010.5
2015-Aug-28 23:33N 54°20' W 005°11'10 9.9
2015-Aug-28 22:33N 54°10' W 005°13'  
2015-Aug-25 09:04N 39°54' W 009°50'810.2
2015-Aug-25 08:19N 39°46' W 009°50'910.4
2015-Aug-25 07:27N 39°37' W 009°50'1010.3
2015-Aug-25 06:30N 39°28' W 009°51'9 9.8
2015-Aug-25 05:33N 39°18' W 009°51'1010.0
2015-Aug-25 04:33N 39°08' W 009°51'1010.2
2015-Aug-25 03:33N 38°58' W 009°52'1010.0
2015-Aug-25 02:33N 38°48' W 009°52'9 9.4
2015-Aug-25 01:34N 38°39' W 009°50'10 9.7
2015-Aug-25 00:33N 38°30' W 009°46'10 9.5
2015-Aug-24 23:33N 38°21' W 009°42'9 9.1
2015-Aug-24 22:33N 38°15' W 009°33'10 9.6
2015-Aug-24 21:33N 38°09' W 009°23'9 9.3
2015-Aug-24 20:33N 38°04' W 009°13'9 9.1
2015-Aug-24 19:33N 37°59' W 009°03'10 9.7
2015-Aug-24 18:33N 37°54' W 008°53'2 2.3
2015-Aug-24 17:33N 37°56' W 008°51'0 0.0
2015-Aug-24 16:33N 37°56' W 008°51'0 0.0
2015-Aug-24 15:32N 37°56' W 008°51'0 0.0
2015-Aug-24 14:32N 37°56' W 008°51'0 0.0
2015-Aug-24 13:32N 37°56' W 008°51'  

Dump ship's entire track history